sensor_id;sensor_type;location;lat;lon;timestamp;temperature;humidity
4245;DHT22;2136;48.502;9.194;2022-12-20T00:00:50;3.80;99.90
4245;DHT22;2136;48.502;9.194;2022-12-20T00:03:17;3.70;99.90
4245;DHT22;2136;48.502;9.194;2022-12-20T00:05:45;3.70;99.90
4245;DHT22;2136;48.502;9.194;2022-12-20T00:08:12;3.70;99.90
4245;DHT22;2136;48.502;9.194;2022-12-20T00:10:41;3.70;99.90
4245;DHT22;2136;48.502;9.194;2022-12-20T00:13:08;3.70;99.90
4245;DHT22;2136;48.502;9.194;2022-12-20T00:15:36;3.70;99.90
4245;DHT22;2136;48.502;9.194;2022-12-20T00:18:04;3.60;99.90
4245;DHT22;2136;48.502;9.194;2022-12-20T00:20:31;3.70;99.90
4245;DHT22;2136;48.502;9.194;2022-12-20T00:22:58;3.60;99.90
4245;DHT22;2136;48.502;9.194;2022-12-20T00:25:25;3.60;99.90
4245;DHT22;2136;48.502;9.194;2022-12-20T00:27:52;3.70;99.90
4245;DHT22;2136;48.502;9.194;2022-12-20T00:30:19;3.60;99.90
4245;DHT22;2136;48.502;9.194;2022-12-20T00:32:46;3.60;99.90
4245;DHT22;2136;48.502;9.194;2022-12-20T00:35:14;3.60;99.90
4245;DHT22;2136;48.502;9.194;2022-12-20T00:37:41;3.60;99.90
4245;DHT22;2136;48.502;9.194;2022-12-20T00:40:08;3.50;99.90
4245;DHT22;2136;48.502;9.194;2022-12-20T00:42:35;3.60;99.90
4245;DHT22;2136;48.502;9.194;2022-12-20T00:45:02;3.60;99.90
4245;DHT22;2136;48.502;9.194;2022-12-20T00:47:29;3.60;99.90
4245;DHT22;2136;48.502;9.194;2022-12-20T00:49:56;3.60;99.90
4245;DHT22;2136;48.502;9.194;2022-12-20T00:52:24;3.60;99.90
4245;DHT22;2136;48.502;9.194;2022-12-20T00:54:51;3.80;99.90
4245;DHT22;2136;48.502;9.194;2022-12-20T00:57:18;3.60;99.90
4245;DHT22;2136;48.502;9.194;2022-12-20T00:59:44;3.60;99.90
4245;DHT22;2136;48.502;9.194;2022-12-20T01:02:11;3.70;99.90
4245;DHT22;2136;48.502;9.194;2022-12-20T01:04:38;3.70;99.90
4245;DHT22;2136;48.502;9.194;2022-12-20T01:07:05;3.90;99.90
4245;DHT22;2136;48.502;9.194;2022-12-20T01:09:33;3.80;99.90
4245;DHT22;2136;48.502;9.194;2022-12-20T01:12:00;3.80;99.90
4245;DHT22;2136;48.502;9.194;2022-12-20T01:14:26;3.80;99.90
4245;DHT22;2136;48.502;9.194;2022-12-20T01:16:53;3.80;99.90
4245;DHT22;2136;48.502;9.194;2022-12-20T01:19:20;3.80;99.90
4245;DHT22;2136;48.502;9.194;2022-12-20T01:21:47;3.80;99.90
4245;DHT22;2136;48.502;9.194;2022-12-20T01:24:15;3.80;99.90
4245;DHT22;2136;48.502;9.194;2022-12-20T01:26:44;3.80;99.90
4245;DHT22;2136;48.502;9.194;2022-12-20T01:29:11;3.80;99.90
4245;DHT22;2136;48.502;9.194;2022-12-20T01:31:38;3.80;99.90
4245;DHT22;2136;48.502;9.194;2022-12-20T01:34:05;3.80;99.90
4245;DHT22;2136;48.502;9.194;2022-12-20T01:36:33;3.80;99.90
4245;DHT22;2136;48.502;9.194;2022-12-20T01:39:03;3.80;99.90
4245;DHT22;2136;48.502;9.194;2022-12-20T01:41:31;3.80;99.90
4245;DHT22;2136;48.502;9.194;2022-12-20T01:44:01;3.80;99.90
4245;DHT22;2136;48.502;9.194;2022-12-20T01:46:29;3.80;99.90
4245;DHT22;2136;48.502;9.194;2022-12-20T01:48:59;3.80;99.90
4245;DHT22;2136;48.502;9.194;2022-12-20T01:51:30;3.80;99.90
4245;DHT22;2136;48.502;9.194;2022-12-20T01:54:01;3.80;99.90
4245;DHT22;2136;48.502;9.194;2022-12-20T01:56:29;3.80;99.90
4245;DHT22;2136;48.502;9.194;2022-12-20T01:58:57;4.00;99.90
4245;DHT22;2136;48.502;9.194;2022-12-20T02:01:26;3.80;99.90
4245;DHT22;2136;48.502;9.194;2022-12-20T02:03:54;3.90;99.90
4245;DHT22;2136;48.502;9.194;2022-12-20T02:06:23;3.90;99.90
4245;DHT22;2136;48.502;9.194;2022-12-20T02:08:52;3.90;99.90
4245;DHT22;2136;48.502;9.194;2022-12-20T02:11:38;3.90;99.90
4245;DHT22;2136;48.502;9.194;2022-12-20T02:14:13;3.90;99.90
4245;DHT22;2136;48.502;9.194;2022-12-20T02:16:48;4.00;99.90
4245;DHT22;2136;48.502;9.194;2022-12-20T02:19:50;4.00;99.90
4245;DHT22;2136;48.502;9.194;2022-12-20T02:22:27;4.00;99.90
4245;DHT22;2136;48.502;9.194;2022-12-20T02:25:13;4.10;99.90
4245;DHT22;2136;48.502;9.194;2022-12-20T02:27:56;4.10;99.90
4245;DHT22;2136;48.502;9.194;2022-12-20T02:30:28;4.10;99.90
4245;DHT22;2136;48.502;9.194;2022-12-20T02:32:59;4.20;99.90
4245;DHT22;2136;48.502;9.194;2022-12-20T02:35:30;4.20;99.90
4245;DHT22;2136;48.502;9.194;2022-12-20T02:37:58;4.20;99.90
4245;DHT22;2136;48.502;9.194;2022-12-20T02:40:27;4.10;99.90
4245;DHT22;2136;48.502;9.194;2022-12-20T02:42:59;4.10;99.90
4245;DHT22;2136;48.502;9.194;2022-12-20T02:45:31;4.10;99.90
4245;DHT22;2136;48.502;9.194;2022-12-20T02:48:01;4.10;99.90
4245;DHT22;2136;48.502;9.194;2022-12-20T02:50:31;4.10;99.90
4245;DHT22;2136;48.502;9.194;2022-12-20T02:53:00;4.10;99.90
4245;DHT22;2136;48.502;9.194;2022-12-20T02:55:32;4.10;99.90
4245;DHT22;2136;48.502;9.194;2022-12-20T02:58:06;4.10;99.90
4245;DHT22;2136;48.502;9.194;2022-12-20T03:00:40;4.00;99.90
4245;DHT22;2136;48.502;9.194;2022-12-20T03:03:08;4.10;99.90
4245;DHT22;2136;48.502;9.194;2022-12-20T03:05:55;4.00;99.90
4245;DHT22;2136;48.502;9.194;2022-12-20T03:08:23;4.00;99.90
4245;DHT22;2136;48.502;9.194;2022-12-20T03:10:51;4.00;99.90
4245;DHT22;2136;48.502;9.194;2022-12-20T03:13:19;4.00;99.90
4245;DHT22;2136;48.502;9.194;2022-12-20T03:15:47;4.00;99.90
4245;DHT22;2136;48.502;9.194;2022-12-20T03:18:14;4.00;99.90
4245;DHT22;2136;48.502;9.194;2022-12-20T03:20:41;4.00;99.90
4245;DHT22;2136;48.502;9.194;2022-12-20T03:23:08;4.00;99.90
4245;DHT22;2136;48.502;9.194;2022-12-20T03:25:35;3.90;99.90
4245;DHT22;2136;48.502;9.194;2022-12-20T03:28:02;3.90;99.90
4245;DHT22;2136;48.502;9.194;2022-12-20T03:30:29;3.90;99.90
4245;DHT22;2136;48.502;9.194;2022-12-20T03:32:57;3.90;99.90
4245;DHT22;2136;48.502;9.194;2022-12-20T03:35:24;3.90;99.90
4245;DHT22;2136;48.502;9.194;2022-12-20T03:37:51;3.90;99.90
4245;DHT22;2136;48.502;9.194;2022-12-20T03:40:18;3.90;99.90
4245;DHT22;2136;48.502;9.194;2022-12-20T03:42:44;3.90;99.90
4245;DHT22;2136;48.502;9.194;2022-12-20T03:45:11;3.90;99.90
4245;DHT22;2136;48.502;9.194;2022-12-20T03:47:38;3.90;99.90
4245;DHT22;2136;48.502;9.194;2022-12-20T03:50:07;4.00;99.90
4245;DHT22;2136;48.502;9.194;2022-12-20T03:52:35;4.00;99.90
4245;DHT22;2136;48.502;9.194;2022-12-20T03:55:02;4.00;99.90
4245;DHT22;2136;48.502;9.194;2022-12-20T03:57:29;4.00;99.90
4245;DHT22;2136;48.502;9.194;2022-12-20T03:59:56;4.00;99.90
4245;DHT22;2136;48.502;9.194;2022-12-20T04:02:23;4.00;99.90
4245;DHT22;2136;48.502;9.194;2022-12-20T04:04:50;4.00;99.90
4245;DHT22;2136;48.502;9.194;2022-12-20T04:07:18;4.10;99.90
4245;DHT22;2136;48.502;9.194;2022-12-20T04:09:45;4.00;99.90
4245;DHT22;2136;48.502;9.194;2022-12-20T04:12:11;4.10;99.90
4245;DHT22;2136;48.502;9.194;2022-12-20T04:14:38;4.10;99.90
4245;DHT22;2136;48.502;9.194;2022-12-20T04:17:05;4.10;99.90
4245;DHT22;2136;48.502;9.194;2022-12-20T04:19:32;4.10;99.90
4245;DHT22;2136;48.502;9.194;2022-12-20T04:21:59;4.20;99.90
4245;DHT22;2136;48.502;9.194;2022-12-20T04:24:27;4.20;99.90
4245;DHT22;2136;48.502;9.194;2022-12-20T04:26:54;4.20;99.90
4245;DHT22;2136;48.502;9.194;2022-12-20T04:29:20;4.20;99.90
4245;DHT22;2136;48.502;9.194;2022-12-20T04:31:47;4.20;99.90
4245;DHT22;2136;48.502;9.194;2022-12-20T04:34:14;4.20;99.90
4245;DHT22;2136;48.502;9.194;2022-12-20T04:36:41;4.20;99.90
4245;DHT22;2136;48.502;9.194;2022-12-20T04:39:08;4.20;99.90
4245;DHT22;2136;48.502;9.194;2022-12-20T04:41:36;4.20;99.90
4245;DHT22;2136;48.502;9.194;2022-12-20T04:44:03;4.20;99.90
4245;DHT22;2136;48.502;9.194;2022-12-20T04:46:30;4.20;99.90
4245;DHT22;2136;48.502;9.194;2022-12-20T04:48:56;4.20;99.90
4245;DHT22;2136;48.502;9.194;2022-12-20T04:51:23;4.20;99.90
4245;DHT22;2136;48.502;9.194;2022-12-20T04:53:50;4.20;99.90
4245;DHT22;2136;48.502;9.194;2022-12-20T04:56:17;4.20;99.90
4245;DHT22;2136;48.502;9.194;2022-12-20T04:58:47;4.20;99.90
4245;DHT22;2136;48.502;9.194;2022-12-20T05:01:15;4.30;99.90
4245;DHT22;2136;48.502;9.194;2022-12-20T05:03:42;4.30;99.90
4245;DHT22;2136;48.502;9.194;2022-12-20T05:06:09;4.30;99.90
4245;DHT22;2136;48.502;9.194;2022-12-20T05:08:37;4.30;99.90
4245;DHT22;2136;48.502;9.194;2022-12-20T05:11:04;4.40;99.90
4245;DHT22;2136;48.502;9.194;2022-12-20T05:13:32;4.30;99.90
4245;DHT22;2136;48.502;9.194;2022-12-20T05:16:00;4.40;99.90
4245;DHT22;2136;48.502;9.194;2022-12-20T05:18:28;4.30;99.90
4245;DHT22;2136;48.502;9.194;2022-12-20T05:20:55;4.40;99.90
4245;DHT22;2136;48.502;9.194;2022-12-20T05:23:40;4.40;99.90
4245;DHT22;2136;48.502;9.194;2022-12-20T05:26:25;4.40;99.90
4245;DHT22;2136;48.502;9.194;2022-12-20T05:28:54;4.40;99.90
4245;DHT22;2136;48.502;9.194;2022-12-20T05:31:23;4.40;99.90
4245;DHT22;2136;48.502;9.194;2022-12-20T05:33:50;4.40;99.90
4245;DHT22;2136;48.502;9.194;2022-12-20T05:36:16;4.50;99.90
4245;DHT22;2136;48.502;9.194;2022-12-20T05:38:43;4.50;99.90
4245;DHT22;2136;48.502;9.194;2022-12-20T05:41:10;4.50;99.90
4245;DHT22;2136;48.502;9.194;2022-12-20T05:43:37;4.50;99.90
4245;DHT22;2136;48.502;9.194;2022-12-20T05:46:05;4.50;99.90
4245;DHT22;2136;48.502;9.194;2022-12-20T05:48:33;4.50;99.90
4245;DHT22;2136;48.502;9.194;2022-12-20T05:51:00;4.50;99.90
4245;DHT22;2136;48.502;9.194;2022-12-20T05:53:27;4.60;99.90
4245;DHT22;2136;48.502;9.194;2022-12-20T05:55:54;4.60;99.90
4245;DHT22;2136;48.502;9.194;2022-12-20T05:58:21;4.60;99.90
4245;DHT22;2136;48.502;9.194;2022-12-20T06:00:48;4.60;99.90
4245;DHT22;2136;48.502;9.194;2022-12-20T06:03:15;4.60;99.90
4245;DHT22;2136;48.502;9.194;2022-12-20T06:05:44;4.60;99.90
4245;DHT22;2136;48.502;9.194;2022-12-20T06:08:11;4.60;99.90
4245;DHT22;2136;48.502;9.194;2022-12-20T06:10:39;4.60;99.90
4245;DHT22;2136;48.502;9.194;2022-12-20T06:13:07;4.60;99.90
4245;DHT22;2136;48.502;9.194;2022-12-20T06:15:34;4.60;99.90
4245;DHT22;2136;48.502;9.194;2022-12-20T06:18:01;4.50;99.90
4245;DHT22;2136;48.502;9.194;2022-12-20T06:20:28;4.50;99.90
4245;DHT22;2136;48.502;9.194;2022-12-20T06:22:56;4.50;99.90
4245;DHT22;2136;48.502;9.194;2022-12-20T06:25:23;4.50;99.90
4245;DHT22;2136;48.502;9.194;2022-12-20T06:27:50;4.50;99.90
4245;DHT22;2136;48.502;9.194;2022-12-20T06:30:17;4.40;99.90
4245;DHT22;2136;48.502;9.194;2022-12-20T06:32:44;4.40;99.90
4245;DHT22;2136;48.502;9.194;2022-12-20T06:35:11;4.40;99.90
4245;DHT22;2136;48.502;9.194;2022-12-20T06:37:37;4.30;99.90
4245;DHT22;2136;48.502;9.194;2022-12-20T06:40:08;4.30;99.90
4245;DHT22;2136;48.502;9.194;2022-12-20T06:42:35;4.30;99.90
4245;DHT22;2136;48.502;9.194;2022-12-20T06:45:02;4.30;99.90
4245;DHT22;2136;48.502;9.194;2022-12-20T06:47:29;4.30;99.90
4245;DHT22;2136;48.502;9.194;2022-12-20T06:49:55;4.30;99.90
4245;DHT22;2136;48.502;9.194;2022-12-20T06:52:22;4.40;99.90
4245;DHT22;2136;48.502;9.194;2022-12-20T06:54:49;4.40;99.90
4245;DHT22;2136;48.502;9.194;2022-12-20T06:57:17;4.40;99.90
4245;DHT22;2136;48.502;9.194;2022-12-20T06:59:44;4.40;99.90
4245;DHT22;2136;48.502;9.194;2022-12-20T07:02:11;4.50;99.90
4245;DHT22;2136;48.502;9.194;2022-12-20T07:04:38;4.50;99.90
4245;DHT22;2136;48.502;9.194;2022-12-20T07:07:06;4.60;99.90
4245;DHT22;2136;48.502;9.194;2022-12-20T07:09:33;4.60;99.90
4245;DHT22;2136;48.502;9.194;2022-12-20T07:12:00;4.60;99.90
4245;DHT22;2136;48.502;9.194;2022-12-20T07:14:28;4.70;99.90
4245;DHT22;2136;48.502;9.194;2022-12-20T07:16:55;4.70;99.90
4245;DHT22;2136;48.502;9.194;2022-12-20T07:19:21;4.70;99.90
4245;DHT22;2136;48.502;9.194;2022-12-20T07:21:48;4.90;99.90
4245;DHT22;2136;48.502;9.194;2022-12-20T07:24:15;4.80;99.90
4245;DHT22;2136;48.502;9.194;2022-12-20T07:26:43;4.80;99.90
4245;DHT22;2136;48.502;9.194;2022-12-20T07:29:10;4.80;99.90
4245;DHT22;2136;48.502;9.194;2022-12-20T07:31:38;4.90;99.90
4245;DHT22;2136;48.502;9.194;2022-12-20T07:34:05;4.80;99.90
4245;DHT22;2136;48.502;9.194;2022-12-20T07:36:32;4.70;99.90
4245;DHT22;2136;48.502;9.194;2022-12-20T07:38:59;4.80;99.90
4245;DHT22;2136;48.502;9.194;2022-12-20T07:41:25;4.80;99.90
4245;DHT22;2136;48.502;9.194;2022-12-20T07:43:52;4.80;99.90
4245;DHT22;2136;48.502;9.194;2022-12-20T07:46:19;4.80;99.90
4245;DHT22;2136;48.502;9.194;2022-12-20T07:48:47;4.80;99.90
4245;DHT22;2136;48.502;9.194;2022-12-20T07:51:16;4.80;99.90
4245;DHT22;2136;48.502;9.194;2022-12-20T07:53:47;4.80;99.90
4245;DHT22;2136;48.502;9.194;2022-12-20T07:56:14;4.80;99.90
4245;DHT22;2136;48.502;9.194;2022-12-20T07:58:42;4.80;99.90
4245;DHT22;2136;48.502;9.194;2022-12-20T08:01:10;4.80;99.90
4245;DHT22;2136;48.502;9.194;2022-12-20T08:03:41;5.00;99.90
4245;DHT22;2136;48.502;9.194;2022-12-20T08:06:11;5.00;99.90
4245;DHT22;2136;48.502;9.194;2022-12-20T08:08:43;4.90;99.90
4245;DHT22;2136;48.502;9.194;2022-12-20T08:11:12;5.00;99.90
4245;DHT22;2136;48.502;9.194;2022-12-20T08:13:40;5.00;99.90
4245;DHT22;2136;48.502;9.194;2022-12-20T08:16:07;5.00;99.90
4245;DHT22;2136;48.502;9.194;2022-12-20T08:18:33;5.20;99.90
4245;DHT22;2136;48.502;9.194;2022-12-20T08:21:00;5.20;99.90
4245;DHT22;2136;48.502;9.194;2022-12-20T08:23:28;5.10;99.90
4245;DHT22;2136;48.502;9.194;2022-12-20T08:25:55;5.20;99.90
4245;DHT22;2136;48.502;9.194;2022-12-20T08:28:22;5.40;99.90
4245;DHT22;2136;48.502;9.194;2022-12-20T08:30:49;5.30;99.90
4245;DHT22;2136;48.502;9.194;2022-12-20T08:33:16;5.40;99.90
4245;DHT22;2136;48.502;9.194;2022-12-20T08:35:43;5.40;99.90
4245;DHT22;2136;48.502;9.194;2022-12-20T08:38:10;5.50;99.90
4245;DHT22;2136;48.502;9.194;2022-12-20T08:40:38;5.50;99.90
4245;DHT22;2136;48.502;9.194;2022-12-20T08:43:05;5.60;99.90
4245;DHT22;2136;48.502;9.194;2022-12-20T08:45:31;5.70;99.90
4245;DHT22;2136;48.502;9.194;2022-12-20T08:47:58;5.80;99.90
4245;DHT22;2136;48.502;9.194;2022-12-20T08:50:25;5.80;99.90
4245;DHT22;2136;48.502;9.194;2022-12-20T08:52:52;5.90;99.90
4245;DHT22;2136;48.502;9.194;2022-12-20T08:55:19;5.90;99.90
4245;DHT22;2136;48.502;9.194;2022-12-20T08:57:47;5.90;99.90
4245;DHT22;2136;48.502;9.194;2022-12-20T09:00:14;5.90;99.90
4245;DHT22;2136;48.502;9.194;2022-12-20T09:02:41;5.90;99.90
4245;DHT22;2136;48.502;9.194;2022-12-20T09:05:09;5.90;99.90
4245;DHT22;2136;48.502;9.194;2022-12-20T09:07:36;5.90;99.90
4245;DHT22;2136;48.502;9.194;2022-12-20T09:10:04;5.90;99.90
4245;DHT22;2136;48.502;9.194;2022-12-20T09:12:31;5.90;99.90
4245;DHT22;2136;48.502;9.194;2022-12-20T09:14:59;5.90;99.90
4245;DHT22;2136;48.502;9.194;2022-12-20T09:17:26;5.80;99.90
4245;DHT22;2136;48.502;9.194;2022-12-20T09:19:52;5.80;99.90
4245;DHT22;2136;48.502;9.194;2022-12-20T09:22:19;5.80;99.90
4245;DHT22;2136;48.502;9.194;2022-12-20T09:24:46;5.70;99.90
4245;DHT22;2136;48.502;9.194;2022-12-20T09:27:13;5.80;99.90
4245;DHT22;2136;48.502;9.194;2022-12-20T09:29:40;5.80;99.90
4245;DHT22;2136;48.502;9.194;2022-12-20T09:32:08;5.90;99.90
4245;DHT22;2136;48.502;9.194;2022-12-20T09:34:35;6.00;99.90
4245;DHT22;2136;48.502;9.194;2022-12-20T09:37:02;6.10;99.90
4245;DHT22;2136;48.502;9.194;2022-12-20T09:39:29;6.30;99.90
4245;DHT22;2136;48.502;9.194;2022-12-20T09:41:56;6.40;99.90
4245;DHT22;2136;48.502;9.194;2022-12-20T09:44:26;6.50;99.90
4245;DHT22;2136;48.502;9.194;2022-12-20T09:46:57;6.60;99.90
4245;DHT22;2136;48.502;9.194;2022-12-20T09:49:28;6.70;99.90
4245;DHT22;2136;48.502;9.194;2022-12-20T09:52:11;6.80;99.90
4245;DHT22;2136;48.502;9.194;2022-12-20T09:54:48;6.90;99.90
4245;DHT22;2136;48.502;9.194;2022-12-20T09:57:23;6.90;99.90
4245;DHT22;2136;48.502;9.194;2022-12-20T09:59:50;7.10;99.90
4245;DHT22;2136;48.502;9.194;2022-12-20T10:02:20;7.20;99.90
4245;DHT22;2136;48.502;9.194;2022-12-20T10:04:50;7.20;99.20
4245;DHT22;2136;48.502;9.194;2022-12-20T10:07:26;7.20;98.30
4245;DHT22;2136;48.502;9.194;2022-12-20T10:10:18;7.20;97.90
4245;DHT22;2136;48.502;9.194;2022-12-20T10:12:55;7.30;98.10
4245;DHT22;2136;48.502;9.194;2022-12-20T10:15:29;7.30;98.40
4245;DHT22;2136;48.502;9.194;2022-12-20T10:18:16;7.30;98.00
4245;DHT22;2136;48.502;9.194;2022-12-20T10:20:56;7.40;97.70
4245;DHT22;2136;48.502;9.194;2022-12-20T10:23:27;7.40;96.60
4245;DHT22;2136;48.502;9.194;2022-12-20T10:25:56;7.40;95.90
4245;DHT22;2136;48.502;9.194;2022-12-20T10:28:26;7.30;95.00
4245;DHT22;2136;48.502;9.194;2022-12-20T10:30:53;7.30;94.70
4245;DHT22;2136;48.502;9.194;2022-12-20T10:33:22;7.20;94.60
4245;DHT22;2136;48.502;9.194;2022-12-20T10:35:50;7.20;94.40
4245;DHT22;2136;48.502;9.194;2022-12-20T10:38:18;7.10;94.30
4245;DHT22;2136;48.502;9.194;2022-12-20T10:40:46;7.00;94.40
4245;DHT22;2136;48.502;9.194;2022-12-20T10:43:15;7.00;94.80
4245;DHT22;2136;48.502;9.194;2022-12-20T10:45:44;7.00;95.20
4245;DHT22;2136;48.502;9.194;2022-12-20T10:48:27;6.90;94.70
4245;DHT22;2136;48.502;9.194;2022-12-20T10:50:57;6.90;95.10
4245;DHT22;2136;48.502;9.194;2022-12-20T10:53:24;6.90;94.80
4245;DHT22;2136;48.502;9.194;2022-12-20T10:55:52;6.80;94.60
4245;DHT22;2136;48.502;9.194;2022-12-20T10:58:29;6.80;94.80
4245;DHT22;2136;48.502;9.194;2022-12-20T11:01:05;6.80;95.40
4245;DHT22;2136;48.502;9.194;2022-12-20T11:03:50;6.70;95.70
4245;DHT22;2136;48.502;9.194;2022-12-20T11:06:20;6.80;96.00
4245;DHT22;2136;48.502;9.194;2022-12-20T11:08:47;6.70;96.00
4245;DHT22;2136;48.502;9.194;2022-12-20T11:11:16;6.70;96.30
4245;DHT22;2136;48.502;9.194;2022-12-20T11:13:45;6.80;96.40
4245;DHT22;2136;48.502;9.194;2022-12-20T11:16:23;6.70;96.10
4245;DHT22;2136;48.502;9.194;2022-12-20T11:21:44;6.70;96.70
4245;DHT22;2136;48.502;9.194;2022-12-20T11:24:18;6.70;97.00
4245;DHT22;2136;48.502;9.194;2022-12-20T11:27:12;6.80;97.30
4245;DHT22;2136;48.502;9.194;2022-12-20T11:29:52;6.80;97.50
4245;DHT22;2136;48.502;9.194;2022-12-20T11:32:30;6.90;97.70
4245;DHT22;2136;48.502;9.194;2022-12-20T11:35:10;7.00;97.70
4245;DHT22;2136;48.502;9.194;2022-12-20T11:37:45;7.00;97.70
4245;DHT22;2136;48.502;9.194;2022-12-20T11:40:25;7.10;97.60
4245;DHT22;2136;48.502;9.194;2022-12-20T11:43:12;7.20;97.50
4245;DHT22;2136;48.502;9.194;2022-12-20T11:45:50;7.20;97.20
4245;DHT22;2136;48.502;9.194;2022-12-20T11:48:34;7.30;96.80
4245;DHT22;2136;48.502;9.194;2022-12-20T11:51:03;7.40;96.70
4245;DHT22;2136;48.502;9.194;2022-12-20T11:53:36;7.50;97.00
4245;DHT22;2136;48.502;9.194;2022-12-20T11:56:08;7.60;97.30
4245;DHT22;2136;48.502;9.194;2022-12-20T11:58:45;7.70;97.10
4245;DHT22;2136;48.502;9.194;2022-12-20T12:01:16;7.80;95.80
4245;DHT22;2136;48.502;9.194;2022-12-20T12:03:47;7.80;94.80
4245;DHT22;2136;48.502;9.194;2022-12-20T12:06:18;7.80;93.90
4245;DHT22;2136;48.502;9.194;2022-12-20T12:08:50;7.70;93.40
4245;DHT22;2136;48.502;9.194;2022-12-20T12:11:20;7.70;93.40
4245;DHT22;2136;48.502;9.194;2022-12-20T12:13:50;7.70;93.30
4245;DHT22;2136;48.502;9.194;2022-12-20T12:16:19;7.60;93.60
4245;DHT22;2136;48.502;9.194;2022-12-20T12:18:48;7.60;93.80
4245;DHT22;2136;48.502;9.194;2022-12-20T12:21:19;7.60;94.30
4245;DHT22;2136;48.502;9.194;2022-12-20T12:23:58;7.60;94.60
4245;DHT22;2136;48.502;9.194;2022-12-20T12:26:28;7.70;95.40
4245;DHT22;2136;48.502;9.194;2022-12-20T12:28:57;7.90;96.30
4245;DHT22;2136;48.502;9.194;2022-12-20T12:31:29;8.10;96.20
4245;DHT22;2136;48.502;9.194;2022-12-20T12:34:09;8.30;95.60
4245;DHT22;2136;48.502;9.194;2022-12-20T12:36:56;8.40;94.70
4245;DHT22;2136;48.502;9.194;2022-12-20T12:39:43;8.50;93.80
4245;DHT22;2136;48.502;9.194;2022-12-20T12:45:14;8.70;92.50
4245;DHT22;2136;48.502;9.194;2022-12-20T12:47:48;8.70;91.60
4245;DHT22;2136;48.502;9.194;2022-12-20T12:50:22;8.60;90.80
4245;DHT22;2136;48.502;9.194;2022-12-20T12:52:52;8.50;90.70
4245;DHT22;2136;48.502;9.194;2022-12-20T12:55:42;8.40;90.90
4245;DHT22;2136;48.502;9.194;2022-12-20T12:58:37;8.40;92.30
4245;DHT22;2136;48.502;9.194;2022-12-20T13:01:07;8.60;91.80
4245;DHT22;2136;48.502;9.194;2022-12-20T13:03:41;8.50;91.30
4245;DHT22;2136;48.502;9.194;2022-12-20T13:09:39;8.50;91.10
4245;DHT22;2136;48.502;9.194;2022-12-20T13:18:28;8.30;91.40
4245;DHT22;2136;48.502;9.194;2022-12-20T13:21:30;8.30;90.70
4245;DHT22;2136;48.502;9.194;2022-12-20T13:27:26;8.20;90.80
4245;DHT22;2136;48.502;9.194;2022-12-20T13:32:57;8.20;91.10
4245;DHT22;2136;48.502;9.194;2022-12-20T13:35:43;8.10;91.30
4245;DHT22;2136;48.502;9.194;2022-12-20T13:38:34;8.10;91.60
4245;DHT22;2136;48.502;9.194;2022-12-20T13:41:10;8.10;91.70
4245;DHT22;2136;48.502;9.194;2022-12-20T13:43:41;8.00;91.90
4245;DHT22;2136;48.502;9.194;2022-12-20T13:46:13;8.00;92.20
4245;DHT22;2136;48.502;9.194;2022-12-20T13:48:49;8.00;92.20
4245;DHT22;2136;48.502;9.194;2022-12-20T13:51:21;7.90;92.00
4245;DHT22;2136;48.502;9.194;2022-12-20T13:53:52;7.90;92.00
4245;DHT22;2136;48.502;9.194;2022-12-20T13:56:30;7.80;92.40
4245;DHT22;2136;48.502;9.194;2022-12-20T13:59:03;7.80;92.70
4245;DHT22;2136;48.502;9.194;2022-12-20T14:01:31;7.80;93.10
4245;DHT22;2136;48.502;9.194;2022-12-20T14:04:03;7.80;92.90
4245;DHT22;2136;48.502;9.194;2022-12-20T14:06:33;7.90;93.70
4245;DHT22;2136;48.502;9.194;2022-12-20T14:09:00;8.00;93.60
4245;DHT22;2136;48.502;9.194;2022-12-20T14:11:27;8.00;94.00
4245;DHT22;2136;48.502;9.194;2022-12-20T14:13:56;8.10;94.70
4245;DHT22;2136;48.502;9.194;2022-12-20T14:16:25;8.20;95.00
4245;DHT22;2136;48.502;9.194;2022-12-20T14:18:59;8.40;95.40
4245;DHT22;2136;48.502;9.194;2022-12-20T14:21:27;8.60;94.90
4245;DHT22;2136;48.502;9.194;2022-12-20T14:23:57;8.70;93.60
4245;DHT22;2136;48.502;9.194;2022-12-20T14:26:27;8.70;92.90
4245;DHT22;2136;48.502;9.194;2022-12-20T14:28:55;8.70;92.30
4245;DHT22;2136;48.502;9.194;2022-12-20T14:31:24;8.60;91.90
4245;DHT22;2136;48.502;9.194;2022-12-20T14:34:01;8.60;91.60
4245;DHT22;2136;48.502;9.194;2022-12-20T14:36:28;8.50;91.10
4245;DHT22;2136;48.502;9.194;2022-12-20T14:38:57;8.40;90.70
4245;DHT22;2136;48.502;9.194;2022-12-20T14:41:33;8.20;90.60
4245;DHT22;2136;48.502;9.194;2022-12-20T14:44:03;8.20;90.30
4245;DHT22;2136;48.502;9.194;2022-12-20T14:46:37;8.00;90.10
4245;DHT22;2136;48.502;9.194;2022-12-20T14:49:20;7.90;90.00
4245;DHT22;2136;48.502;9.194;2022-12-20T14:51:48;7.80;90.40
4245;DHT22;2136;48.502;9.194;2022-12-20T14:54:19;7.60;91.00
4245;DHT22;2136;48.502;9.194;2022-12-20T14:56:47;7.60;91.30
4245;DHT22;2136;48.502;9.194;2022-12-20T14:59:21;7.50;91.60
4245;DHT22;2136;48.502;9.194;2022-12-20T15:01:50;7.50;92.00
4245;DHT22;2136;48.502;9.194;2022-12-20T15:04:30;7.50;92.20
4245;DHT22;2136;48.502;9.194;2022-12-20T15:06:57;7.40;92.50
4245;DHT22;2136;48.502;9.194;2022-12-20T15:09:26;7.40;92.60
4245;DHT22;2136;48.502;9.194;2022-12-20T15:11:55;7.40;92.70
4245;DHT22;2136;48.502;9.194;2022-12-20T15:14:31;7.30;92.70
4245;DHT22;2136;48.502;9.194;2022-12-20T15:16:59;7.30;92.60
4245;DHT22;2136;48.502;9.194;2022-12-20T15:19:26;7.30;92.70
4245;DHT22;2136;48.502;9.194;2022-12-20T15:21:53;7.20;93.20
4245;DHT22;2136;48.502;9.194;2022-12-20T15:24:23;7.20;93.50
4245;DHT22;2136;48.502;9.194;2022-12-20T15:26:52;7.20;93.90
4245;DHT22;2136;48.502;9.194;2022-12-20T15:29:20;7.20;94.20
4245;DHT22;2136;48.502;9.194;2022-12-20T15:31:48;7.20;94.50
4245;DHT22;2136;48.502;9.194;2022-12-20T15:34:18;7.20;94.70
4245;DHT22;2136;48.502;9.194;2022-12-20T15:36:49;7.10;94.70
4245;DHT22;2136;48.502;9.194;2022-12-20T15:39:16;7.10;95.00
4245;DHT22;2136;48.502;9.194;2022-12-20T15:41:46;7.10;95.00
4245;DHT22;2136;48.502;9.194;2022-12-20T15:44:18;7.10;94.90
4245;DHT22;2136;48.502;9.194;2022-12-20T15:46:45;7.10;95.10
4245;DHT22;2136;48.502;9.194;2022-12-20T15:49:13;7.10;96.00
4245;DHT22;2136;48.502;9.194;2022-12-20T15:51:40;7.10;95.20
4245;DHT22;2136;48.502;9.194;2022-12-20T15:54:22;7.10;94.60
4245;DHT22;2136;48.502;9.194;2022-12-20T15:56:52;7.10;94.80
4245;DHT22;2136;48.502;9.194;2022-12-20T15:59:20;7.00;95.30
4245;DHT22;2136;48.502;9.194;2022-12-20T16:01:47;7.00;95.20
4245;DHT22;2136;48.502;9.194;2022-12-20T16:04:16;7.00;95.40
4245;DHT22;2136;48.502;9.194;2022-12-20T16:06:45;7.00;95.90
4245;DHT22;2136;48.502;9.194;2022-12-20T16:09:12;6.90;96.30
4245;DHT22;2136;48.502;9.194;2022-12-20T16:11:39;6.90;96.60
4245;DHT22;2136;48.502;9.194;2022-12-20T16:14:13;6.90;96.70
4245;DHT22;2136;48.502;9.194;2022-12-20T16:16:42;6.90;96.80
4245;DHT22;2136;48.502;9.194;2022-12-20T16:19:10;6.90;97.00
4245;DHT22;2136;48.502;9.194;2022-12-20T16:21:42;6.90;97.20
4245;DHT22;2136;48.502;9.194;2022-12-20T16:24:12;6.90;97.70
4245;DHT22;2136;48.502;9.194;2022-12-20T16:26:39;7.00;98.60
4245;DHT22;2136;48.502;9.194;2022-12-20T16:29:06;7.00;98.70
4245;DHT22;2136;48.502;9.194;2022-12-20T16:31:35;7.00;99.00
4245;DHT22;2136;48.502;9.194;2022-12-20T16:34:05;6.90;99.10
4245;DHT22;2136;48.502;9.194;2022-12-20T16:36:32;6.90;99.00
4245;DHT22;2136;48.502;9.194;2022-12-20T16:38:59;6.90;98.90
4245;DHT22;2136;48.502;9.194;2022-12-20T16:41:28;6.90;98.50
4245;DHT22;2136;48.502;9.194;2022-12-20T16:43:56;6.90;98.80
4245;DHT22;2136;48.502;9.194;2022-12-20T16:46:24;6.90;98.80
4245;DHT22;2136;48.502;9.194;2022-12-20T16:48:52;6.90;98.50
4245;DHT22;2136;48.502;9.194;2022-12-20T16:51:24;6.90;98.20
4245;DHT22;2136;48.502;9.194;2022-12-20T16:53:52;6.90;98.40
4245;DHT22;2136;48.502;9.194;2022-12-20T16:56:19;6.90;98.40